createdAt,value
2018-06-21T00:00:06.972Z,22.14
2018-06-21T00:00:47.577Z,22.18
2018-06-21T00:01:28.144Z,22.14
2018-06-21T00:02:08.714Z,22.23
2018-06-21T00:02:49.278Z,22.11
2018-06-21T00:03:29.819Z,22.08
2018-06-21T00:04:10.361Z,22.14
2018-06-21T00:04:50.912Z,22.15
2018-06-21T00:05:31.516Z,22.13
2018-06-21T00:06:12.063Z,22.13
2018-06-21T00:06:52.628Z,22.11
2018-06-21T00:07:33.178Z,22.02
2018-06-21T00:08:13.769Z,22.11
2018-06-21T00:08:54.328Z,22.17
2018-06-21T00:09:34.872Z,22.08
2018-06-21T00:10:15.465Z,22.1
2018-06-21T00:10:56.013Z,22.2
2018-06-21T00:11:36.570Z,22.08
2018-06-21T00:12:17.138Z,22.08
2018-06-21T00:12:57.702Z,22.11
2018-06-21T00:13:38.263Z,22.08
2018-06-21T00:14:18.796Z,22.11
2018-06-21T00:14:59.405Z,22.06
2018-06-21T00:15:39.965Z,22.04
2018-06-21T00:16:20.481Z,22.07
2018-06-21T00:17:01.037Z,22
2018-06-21T00:17:41.606Z,22.04
2018-06-21T00:18:22.145Z,22
2018-06-21T00:19:02.690Z,21.98
2018-06-21T00:19:43.273Z,21.95
2018-06-21T00:20:23.806Z,22.02
2018-06-21T00:21:04.383Z,22
2018-06-21T00:21:44.963Z,21.95
2018-06-21T00:22:25.540Z,21.99
2018-06-21T00:23:06.125Z,21.98
2018-06-21T00:23:46.660Z,21.99
2018-06-21T00:24:27.325Z,21.95
2018-06-21T00:25:07.890Z,21.93
2018-06-21T00:25:48.447Z,21.93
2018-06-21T00:26:29.004Z,21.85
2018-06-21T00:27:09.559Z,21.96
2018-06-21T00:27:50.121Z,21.93
2018-06-21T00:28:30.746Z,21.91
2018-06-21T00:29:11.267Z,21.91
2018-06-21T00:29:51.857Z,21.98
2018-06-21T00:30:32.430Z,21.95
2018-06-21T00:31:13.000Z,21.93
2018-06-21T00:31:53.553Z,21.82
2018-06-21T00:32:34.105Z,21.82
2018-06-21T00:33:14.653Z,21.82
2018-06-21T00:33:55.219Z,21.8
2018-06-21T00:34:35.767Z,21.92
2018-06-21T00:35:16.336Z,21.93
2018-06-21T00:35:56.874Z,21.85
2018-06-21T00:36:37.427Z,21.85
2018-06-21T00:37:18.001Z,21.88
2018-06-21T00:37:58.575Z,21.82
2018-06-21T00:38:39.133Z,21.88
2018-06-21T00:39:19.703Z,21.88
2018-06-21T00:40:00.267Z,21.88
2018-06-21T00:40:40.822Z,21.83
2018-06-21T00:41:21.390Z,21.88
2018-06-21T00:42:01.937Z,21.76
2018-06-21T00:42:42.502Z,21.89
2018-06-21T00:43:23.060Z,21.8
2018-06-21T00:44:03.622Z,21.76
2018-06-21T00:44:44.192Z,21.7
2018-06-21T00:45:24.787Z,21.75
2018-06-21T00:46:05.342Z,21.73
2018-06-21T00:46:45.922Z,21.7
2018-06-21T00:47:26.482Z,21.85
2018-06-21T00:48:07.068Z,21.76
2018-06-21T00:48:47.635Z,21.73
2018-06-21T00:49:28.163Z,21.73
2018-06-21T00:50:08.703Z,21.7
2018-06-21T00:50:49.309Z,21.73
2018-06-21T00:51:29.882Z,21.7
2018-06-21T00:52:10.460Z,21.64
2018-06-21T00:52:51.033Z,21.72
2018-06-21T00:53:31.605Z,21.62
2018-06-21T00:54:12.137Z,21.72
2018-06-21T00:54:52.691Z,21.62
2018-06-21T00:55:33.273Z,21.72
2018-06-21T00:56:13.802Z,21.64
2018-06-21T00:56:54.343Z,21.6
2018-06-21T00:57:34.892Z,21.69
2018-06-21T00:58:15.435Z,21.67
2018-06-21T00:58:55.975Z,21.67
2018-06-21T00:59:36.574Z,21.73
2018-06-21T01:00:17.122Z,21.64
2018-06-21T01:00:57.690Z,21.58
2018-06-21T01:01:38.248Z,21.67
2018-06-21T01:02:18.823Z,21.73
2018-06-21T01:02:59.432Z,21.66
2018-06-21T01:03:39.945Z,21.61
2018-06-21T01:04:20.512Z,21.55
2018-06-21T01:05:01.065Z,21.57
2018-06-21T01:05:41.625Z,21.67
2018-06-21T01:06:22.177Z,21.52
2018-06-21T01:07:02.748Z,21.62
2018-06-21T01:07:43.326Z,21.57
2018-06-21T01:08:23.922Z,21.52
2018-06-21T01:09:04.487Z,21.69
2018-06-21T01:09:45.057Z,21.6
2018-06-21T01:10:25.653Z,21.6
2018-06-21T01:11:06.206Z,21.5
2018-06-21T01:11:46.776Z,21.6
2018-06-21T01:12:27.326Z,21.61
2018-06-21T01:13:07.933Z,21.54
2018-06-21T01:13:48.476Z,21.6
2018-06-21T01:14:29.052Z,21.55
2018-06-21T01:15:09.615Z,21.51
2018-06-21T01:15:50.188Z,21.57
2018-06-21T01:16:30.783Z,21.45
2018-06-21T01:17:11.336Z,21.45
2018-06-21T01:17:51.940Z,21.42
2018-06-21T01:18:32.511Z,21.51
2018-06-21T01:19:13.060Z,21.46
2018-06-21T01:19:53.631Z,21.45
2018-06-21T01:20:34.207Z,21.5
2018-06-21T01:21:14.775Z,21.51
2018-06-21T01:21:55.338Z,21.5
2018-06-21T01:22:35.893Z,21.39
2018-06-21T01:23:16.451Z,21.4
2018-06-21T01:23:57.000Z,21.42
2018-06-21T01:24:37.580Z,21.43
2018-06-21T01:25:18.182Z,21.48
2018-06-21T01:25:58.695Z,21.45
2018-06-21T01:26:39.264Z,21.42
2018-06-21T01:27:19.835Z,21.48
2018-06-21T01:28:00.411Z,21.43
2018-06-21T01:28:40.972Z,21.43
2018-06-21T01:29:21.536Z,21.5
2018-06-21T01:30:02.100Z,21.45
2018-06-21T01:30:42.666Z,21.46
2018-06-21T01:31:23.248Z,21.42
2018-06-21T01:32:03.826Z,21.45
2018-06-21T01:32:44.441Z,21.42
2018-06-21T01:33:24.999Z,21.33
2018-06-21T01:34:05.584Z,21.36
2018-06-21T01:34:46.169Z,21.39
2018-06-21T01:35:26.732Z,21.37
2018-06-21T01:36:07.299Z,21.39
2018-06-21T01:36:47.852Z,21.35
2018-06-21T01:37:28.433Z,21.39
2018-06-21T01:38:08.986Z,21.33
2018-06-21T01:38:49.591Z,21.33
2018-06-21T01:39:30.153Z,21.36
2018-06-21T01:40:10.713Z,21.4
2018-06-21T01:40:51.274Z,21.36
2018-06-21T01:41:31.847Z,21.35
2018-06-21T01:42:12.423Z,21.37
2018-06-21T01:42:52.984Z,21.32
2018-06-21T01:43:33.538Z,21.33
2018-06-21T01:44:14.107Z,21.27
2018-06-21T01:44:54.651Z,21.33
2018-06-21T01:45:35.198Z,21.29
2018-06-21T01:46:15.751Z,21.27
2018-06-21T01:46:56.325Z,21.25
2018-06-21T01:47:36.884Z,21.37
2018-06-21T01:48:17.463Z,21.25
2018-06-21T01:48:58.038Z,21.36
2018-06-21T01:49:38.597Z,21.32
2018-06-21T01:50:19.232Z,21.36
2018-06-21T01:50:59.739Z,21.32
2018-06-21T01:51:40.314Z,21.33
2018-06-21T01:52:20.907Z,21.39
2018-06-21T01:53:01.467Z,21.32
2018-06-21T01:53:42.038Z,21.37
2018-06-21T01:54:22.602Z,21.3
2018-06-21T01:55:03.174Z,21.39
2018-06-21T01:55:43.746Z,21.42
2018-06-21T01:56:24.422Z,21.32
2018-06-21T01:57:04.884Z,21.3
2018-06-21T01:57:45.460Z,21.36
2018-06-21T01:58:26.043Z,21.37
2018-06-21T01:59:06.589Z,21.21
2018-06-21T01:59:47.151Z,21.25
2018-06-21T02:00:27.714Z,21.25
2018-06-21T02:01:08.289Z,21.33
2018-06-21T02:01:48.847Z,21.3
2018-06-21T02:02:29.414Z,21.27
2018-06-21T02:03:10.017Z,21.24
2018-06-21T02:03:50.559Z,21.2
2018-06-21T02:04:31.119Z,21.21
2018-06-21T02:05:11.697Z,21.25
2018-06-21T02:05:52.245Z,21.12
2018-06-21T02:06:32.826Z,21.29
2018-06-21T02:07:13.374Z,21.2
2018-06-21T02:07:53.925Z,21.18
2018-06-21T02:08:34.472Z,21.18
2018-06-21T02:09:15.025Z,21.15
2018-06-21T02:09:55.607Z,21.21
2018-06-21T02:10:36.168Z,21.27
2018-06-21T02:11:16.804Z,21.25
2018-06-21T02:11:57.365Z,21.29
2018-06-21T02:12:37.935Z,21.21
2018-06-21T02:13:18.497Z,21.27
2018-06-21T02:13:59.042Z,21.22
2018-06-21T02:14:39.634Z,21.25
2018-06-21T02:15:20.218Z,21.29
2018-06-21T02:16:00.764Z,21.27
2018-06-21T02:16:41.367Z,21.29
2018-06-21T02:17:21.925Z,21.2
2018-06-21T02:18:02.487Z,21.25
2018-06-21T02:18:43.065Z,21.17
2018-06-21T02:19:23.621Z,21.3
2018-06-21T02:20:04.194Z,21.15
2018-06-21T02:20:44.763Z,21.21
2018-06-21T02:21:25.308Z,21.17
2018-06-21T02:22:05.871Z,21.14
2018-06-21T02:22:46.448Z,21.17
2018-06-21T02:23:27.021Z,21.2
2018-06-21T02:24:07.577Z,21.17
2018-06-21T02:24:48.142Z,21.09
2018-06-21T02:25:28.719Z,21.17
2018-06-21T02:26:09.284Z,21.18
2018-06-21T02:26:49.848Z,21.14
2018-06-21T02:27:30.434Z,21.15
2018-06-21T02:28:11.024Z,21.21
2018-06-21T02:28:51.611Z,21.15
2018-06-21T02:29:32.206Z,21.2
2018-06-21T02:30:12.803Z,21.25
2018-06-21T02:30:53.330Z,21.2
2018-06-21T02:31:33.905Z,21.17
2018-06-21T02:32:14.471Z,21.22
2018-06-21T02:32:55.031Z,21.17
2018-06-21T02:33:35.587Z,21.15
2018-06-21T02:34:16.221Z,21.21
2018-06-21T02:34:56.741Z,21.17
2018-06-21T02:35:37.315Z,21.22
2018-06-21T02:36:17.874Z,21.24
2018-06-21T02:36:58.455Z,21.21
2018-06-21T02:37:39.073Z,21.24
2018-06-21T02:38:19.650Z,21.27
2018-06-21T02:39:00.217Z,21.21
2018-06-21T02:39:40.863Z,21.2
2018-06-21T02:40:21.433Z,21.2
2018-06-21T02:41:01.994Z,21.25
2018-06-21T02:41:42.568Z,21.21
2018-06-21T02:42:23.124Z,21.18
2018-06-21T02:43:03.687Z,21.18
2018-06-21T02:43:44.258Z,21.3
2018-06-21T02:44:24.854Z,21.22
2018-06-21T02:45:05.430Z,21.25
2018-06-21T02:45:46.075Z,21.24
2018-06-21T02:46:26.659Z,21.29
2018-06-21T02:47:07.217Z,21.29
2018-06-21T02:47:47.759Z,21.22
2018-06-21T02:48:28.331Z,21.27
2018-06-21T02:49:08.894Z,21.27
2018-06-21T02:49:49.466Z,21.24
2018-06-21T02:50:30.058Z,21.32
2018-06-21T02:51:10.588Z,21.25
2018-06-21T02:51:51.169Z,21.27
2018-06-21T02:52:31.735Z,21.27
2018-06-21T02:53:12.348Z,21.33
2018-06-21T02:53:52.915Z,21.25
2018-06-21T02:54:33.484Z,21.3
2018-06-21T02:55:14.040Z,21.32
2018-06-21T02:55:54.608Z,21.33
2018-06-21T02:56:35.174Z,21.27
2018-06-21T02:57:15.779Z,21.3
2018-06-21T02:57:56.323Z,21.22
2018-06-21T02:58:36.887Z,21.22
2018-06-21T02:59:17.440Z,21.2
2018-06-21T02:59:58.011Z,21.21
2018-06-21T03:00:38.600Z,21.17
2018-06-21T03:01:19.164Z,21.2
2018-06-21T03:01:59.760Z,21.2
2018-06-21T03:02:40.306Z,21.22
2018-06-21T03:03:20.894Z,21.22
2018-06-21T03:04:01.639Z,21.25
2018-06-21T03:04:42.031Z,21.22
2018-06-21T03:05:22.598Z,21.22
2018-06-21T03:06:03.164Z,21.21
2018-06-21T03:06:43.710Z,21.17
2018-06-21T03:07:24.259Z,21.2
2018-06-21T03:08:04.825Z,21.21
2018-06-21T03:08:45.389Z,21.14
2018-06-21T03:09:25.954Z,21.25
2018-06-21T03:10:06.567Z,21.25
2018-06-21T03:10:47.120Z,21.2
2018-06-21T03:11:27.680Z,21.22
2018-06-21T03:12:08.217Z,21.11
2018-06-21T03:12:48.791Z,21.2
2018-06-21T03:13:29.368Z,21.15
2018-06-21T03:14:09.948Z,21.25
2018-06-21T03:14:50.496Z,21.22
2018-06-21T03:15:31.088Z,21.15
2018-06-21T03:16:11.651Z,21.25
2018-06-21T03:16:52.214Z,21.18
2018-06-21T03:17:32.849Z,21.27
2018-06-21T03:18:13.450Z,21.21
2018-06-21T03:18:54.018Z,21.2
2018-06-21T03:19:34.613Z,21.29
2018-06-21T03:20:15.181Z,21.29
2018-06-21T03:20:55.728Z,21.21
2018-06-21T03:21:36.308Z,21.24
2018-06-21T03:22:16.864Z,21.24
2018-06-21T03:22:57.581Z,21.35
2018-06-21T03:23:38.187Z,21.3
2018-06-21T03:24:18.747Z,21.32
2018-06-21T03:24:59.315Z,21.33
2018-06-21T03:25:39.865Z,21.29
2018-06-21T03:26:20.416Z,21.35
2018-06-21T03:27:01.005Z,21.29
2018-06-21T03:27:41.554Z,21.36
2018-06-21T03:28:22.127Z,21.25
2018-06-21T03:29:02.841Z,21.39
2018-06-21T03:29:43.451Z,21.37
2018-06-21T03:30:23.982Z,21.27
2018-06-21T03:31:04.530Z,21.3
2018-06-21T03:31:45.123Z,21.35
2018-06-21T03:32:25.681Z,21.27
2018-06-21T03:33:06.225Z,21.3
2018-06-21T03:33:46.797Z,21.35
2018-06-21T03:34:27.388Z,21.36
2018-06-21T03:35:08.013Z,21.37
2018-06-21T03:35:48.581Z,21.35
2018-06-21T03:36:29.109Z,21.35
2018-06-21T03:37:09.683Z,21.35
2018-06-21T03:37:50.248Z,21.3
2018-06-21T03:38:30.850Z,21.37
2018-06-21T03:39:11.385Z,21.32
2018-06-21T03:39:51.943Z,21.35
2018-06-21T03:40:32.491Z,21.3
2018-06-21T03:41:13.054Z,21.3
2018-06-21T03:41:53.687Z,21.32
2018-06-21T03:42:34.258Z,21.3
2018-06-21T03:43:14.784Z,21.37
2018-06-21T03:43:55.354Z,21.35
2018-06-21T03:44:35.923Z,21.37
2018-06-21T03:45:16.540Z,21.4
2018-06-21T03:45:57.075Z,21.4
2018-06-21T03:46:37.695Z,21.36
2018-06-21T03:47:18.244Z,21.35
2018-06-21T03:47:58.777Z,21.3
2018-06-21T03:48:39.352Z,21.39
2018-06-21T03:49:19.930Z,21.42
2018-06-21T03:50:00.478Z,21.42
2018-06-21T03:50:41.027Z,21.33
2018-06-21T03:51:21.593Z,21.43
2018-06-21T03:52:02.167Z,21.35
2018-06-21T03:52:42.755Z,21.45
2018-06-21T03:53:23.304Z,21.43
2018-06-21T03:54:03.839Z,21.39
2018-06-21T03:54:44.388Z,21.5
2018-06-21T03:55:24.955Z,21.51
2018-06-21T03:56:05.513Z,21.4
2018-06-21T03:56:46.072Z,21.4
2018-06-21T03:57:26.620Z,21.37
2018-06-21T03:58:07.179Z,21.42
2018-06-21T03:58:47.714Z,21.39
2018-06-21T03:59:28.289Z,21.33
2018-06-21T04:00:08.826Z,21.4
2018-06-21T04:00:49.356Z,21.25
2018-06-21T04:01:29.908Z,21.33
2018-06-21T04:02:10.464Z,21.32
2018-06-21T04:02:51.126Z,21.27
2018-06-21T04:03:31.675Z,21.3
2018-06-21T04:04:12.236Z,21.36
2018-06-21T04:04:52.918Z,21.36
2018-06-21T04:05:33.449Z,21.36
2018-06-21T04:06:14.016Z,21.36
2018-06-21T04:06:54.563Z,21.27
2018-06-21T04:07:35.130Z,21.27
2018-06-21T04:08:15.695Z,21.32
2018-06-21T04:08:56.280Z,21.36
2018-06-21T04:09:36.841Z,21.36
2018-06-21T04:10:17.422Z,21.32
2018-06-21T04:10:58.039Z,21.36
2018-06-21T04:11:38.591Z,21.33
2018-06-21T04:12:19.179Z,21.32
2018-06-21T04:12:59.730Z,21.35
2018-06-21T04:13:40.296Z,21.3
2018-06-21T04:14:20.852Z,21.35
2018-06-21T04:15:01.419Z,21.36
2018-06-21T04:15:41.966Z,21.32
2018-06-21T04:16:22.518Z,21.37
2018-06-21T04:17:03.055Z,21.35
2018-06-21T04:17:43.615Z,21.42
2018-06-21T04:18:24.181Z,21.45
2018-06-21T04:19:04.725Z,21.5
2018-06-21T04:19:45.300Z,21.46
2018-06-21T04:20:25.854Z,21.51
2018-06-21T04:21:06.440Z,21.5
2018-06-21T04:21:46.993Z,21.46
2018-06-21T04:22:27.556Z,21.45
2018-06-21T04:23:08.105Z,21.45
2018-06-21T04:23:48.669Z,21.45
2018-06-21T04:24:29.242Z,21.43
2018-06-21T04:25:09.798Z,21.5
2018-06-21T04:25:50.357Z,21.55
2018-06-21T04:26:30.928Z,21.43
2018-06-21T04:27:11.523Z,21.54
2018-06-21T04:27:52.091Z,21.55
2018-06-21T04:28:32.659Z,21.48
2018-06-21T04:29:13.224Z,21.54
2018-06-21T04:29:53.807Z,21.64
2018-06-21T04:30:34.355Z,21.64
2018-06-21T04:31:14.927Z,21.55
2018-06-21T04:31:55.493Z,21.58
2018-06-21T04:32:36.060Z,21.69
2018-06-21T04:33:16.617Z,21.69
2018-06-21T04:33:57.182Z,21.66
2018-06-21T04:34:37.750Z,21.76
2018-06-21T04:35:18.302Z,21.73
2018-06-21T04:35:58.855Z,21.79
2018-06-21T04:36:39.426Z,21.62
2018-06-21T04:37:19.991Z,21.69
2018-06-21T04:38:00.558Z,21.75
2018-06-21T04:38:41.121Z,21.75
2018-06-21T04:39:21.703Z,21.77
2018-06-21T04:40:02.273Z,21.82
2018-06-21T04:40:42.838Z,21.73
2018-06-21T04:41:23.392Z,21.77
2018-06-21T04:42:03.972Z,21.8
2018-06-21T04:42:44.513Z,21.75
2018-06-21T04:43:25.070Z,21.77
2018-06-21T04:44:05.628Z,21.83
2018-06-21T04:44:46.188Z,21.89
2018-06-21T04:45:26.755Z,21.95
2018-06-21T04:46:07.302Z,21.83
2018-06-21T04:46:47.867Z,21.83
2018-06-21T04:47:28.435Z,21.88
2018-06-21T04:48:09.005Z,21.89
2018-06-21T04:48:49.547Z,21.88
2018-06-21T04:49:30.096Z,21.93
2018-06-21T04:50:10.669Z,21.93
2018-06-21T04:50:51.235Z,21.95
2018-06-21T04:51:31.791Z,21.88
2018-06-21T04:52:12.349Z,22.06
2018-06-21T04:52:52.918Z,21.96
2018-06-21T04:53:33.485Z,21.95
2018-06-21T04:54:14.860Z,21.92
2018-06-21T04:54:54.597Z,22
2018-06-21T04:55:35.159Z,21.96
2018-06-21T04:56:15.720Z,22.02
2018-06-21T04:56:56.290Z,22
2018-06-21T04:57:36.846Z,21.95
2018-06-21T04:58:17.416Z,21.98
2018-06-21T04:58:57.982Z,22.04
2018-06-21T04:59:38.557Z,22.02
2018-06-21T05:00:19.131Z,21.99
2018-06-21T05:00:59.699Z,22.06
2018-06-21T05:01:40.258Z,22
2018-06-21T05:02:20.847Z,22.04
2018-06-21T05:03:01.398Z,22.04
2018-06-21T05:03:41.988Z,22.11
2018-06-21T05:04:22.542Z,22.02
2018-06-21T05:05:03.095Z,22.1
2018-06-21T05:05:43.657Z,22.1
2018-06-21T05:06:24.300Z,22.2
2018-06-21T05:07:04.829Z,22.28
2018-06-21T05:07:45.386Z,22.29
2018-06-21T05:08:25.964Z,22.25
2018-06-21T05:09:06.543Z,22.29
2018-06-21T05:09:47.153Z,22.28
2018-06-21T05:10:27.726Z,22.23
2018-06-21T05:11:08.299Z,22.35
2018-06-21T05:11:48.888Z,22.28
2018-06-21T05:12:29.467Z,22.32
2018-06-21T05:13:10.030Z,22.3
2018-06-21T05:13:50.604Z,22.29
2018-06-21T05:14:31.157Z,22.39
2018-06-21T05:15:11.736Z,22.43
2018-06-21T05:15:52.375Z,22.44
2018-06-21T05:16:32.956Z,22.44
2018-06-21T05:17:13.505Z,22.43
2018-06-21T05:17:54.070Z,22.47
2018-06-21T05:18:34.609Z,22.45
2018-06-21T05:19:15.169Z,22.44
2018-06-21T05:19:55.763Z,22.53
2018-06-21T05:20:36.337Z,22.55
2018-06-21T05:21:16.913Z,22.57
2018-06-21T05:21:57.481Z,22.65
2018-06-21T05:22:38.117Z,22.65
2018-06-21T05:23:18.670Z,22.75
2018-06-21T05:23:59.243Z,22.75
2018-06-21T05:24:39.825Z,22.78
2018-06-21T05:25:20.403Z,22.81
2018-06-21T05:26:00.985Z,22.94
2018-06-21T05:26:41.551Z,22.94
2018-06-21T05:27:22.109Z,23.1
2018-06-21T05:28:02.694Z,23.05
2018-06-21T05:28:43.257Z,23.17
2018-06-21T05:29:23.867Z,23.2
2018-06-21T05:30:04.457Z,23.34
2018-06-21T05:30:45.049Z,23.36
2018-06-21T05:31:25.651Z,23.46
2018-06-21T05:32:06.258Z,23.48
2018-06-21T05:32:46.798Z,23.61
2018-06-21T05:33:27.348Z,23.51
2018-06-21T05:34:07.917Z,23.66
2018-06-21T05:34:48.475Z,23.71
2018-06-21T05:35:29.042Z,23.77
2018-06-21T05:36:09.606Z,23.88
2018-06-21T05:36:50.186Z,23.99
2018-06-21T05:37:30.903Z,23.98
2018-06-21T05:38:11.415Z,24.11
2018-06-21T05:38:51.980Z,24.14
2018-06-21T05:39:32.555Z,24.16
2018-06-21T05:40:13.146Z,24.21
2018-06-21T05:40:53.713Z,24.28
2018-06-21T05:41:34.275Z,24.21
2018-06-21T05:42:14.850Z,24.3
2018-06-21T05:42:55.416Z,24.29
2018-06-21T05:43:35.978Z,24.2
2018-06-21T05:44:16.598Z,24.16
2018-06-21T05:44:57.106Z,24.24
2018-06-21T05:45:37.669Z,24.18
2018-06-21T05:46:18.229Z,24.18
2018-06-21T05:46:58.790Z,24.38
2018-06-21T05:47:39.351Z,24.42
2018-06-21T05:48:19.920Z,24.43
2018-06-21T05:49:00.521Z,24.4
2018-06-21T05:49:41.166Z,24.57
2018-06-21T05:50:21.718Z,24.55
2018-06-21T05:51:02.284Z,24.54
2018-06-21T05:51:42.853Z,24.54
2018-06-21T05:52:23.423Z,24.57
2018-06-21T05:53:03.988Z,24.68
2018-06-21T05:53:44.544Z,24.77
2018-06-21T05:54:25.115Z,24.78
2018-06-21T05:55:05.701Z,24.8
2018-06-21T05:55:46.343Z,24.91
2018-06-21T05:56:26.953Z,24.85
2018-06-21T05:57:07.537Z,24.98
2018-06-21T05:57:48.098Z,25.06
2018-06-21T05:58:28.674Z,25.08
2018-06-21T05:59:09.239Z,25.16
2018-06-21T05:59:49.807Z,25.16
2018-06-21T06:00:30.387Z,25.17
2018-06-21T06:01:10.971Z,25.26
2018-06-21T06:01:51.571Z,25.29
2018-06-21T06:02:32.111Z,25.25
2018-06-21T06:03:12.687Z,25.16
2018-06-21T06:03:53.295Z,25.23
2018-06-21T06:04:33.847Z,25.23
2018-06-21T06:05:14.420Z,25.38
2018-06-21T06:05:55.011Z,25.41
2018-06-21T06:06:35.589Z,25.44
2018-06-21T06:07:16.247Z,25.4
2018-06-21T06:07:56.752Z,25.43
2018-06-21T06:08:37.312Z,25.33
2018-06-21T06:09:17.859Z,25.28
2018-06-21T06:09:58.400Z,25.16
2018-06-21T06:10:38.948Z,25.29
2018-06-21T06:11:19.540Z,25.14
2018-06-21T06:12:00.084Z,25.16
2018-06-21T06:12:40.628Z,25.17
2018-06-21T06:13:21.176Z,25.22
2018-06-21T06:14:01.779Z,25.26
2018-06-21T06:14:42.273Z,25.23
2018-06-21T06:15:22.834Z,25.23
2018-06-21T06:16:03.420Z,25.22
2018-06-21T06:16:43.945Z,25.26
2018-06-21T06:17:24.520Z,25.22
2018-06-21T06:18:05.114Z,25.17
2018-06-21T06:18:45.687Z,25.11
2018-06-21T06:19:26.278Z,25.08
2018-06-21T06:20:06.922Z,25.07
2018-06-21T06:20:47.413Z,25.08
2018-06-21T06:21:27.987Z,25.03
2018-06-21T06:22:08.552Z,25.16
2018-06-21T06:22:49.118Z,25.26
2018-06-21T06:23:29.684Z,25.29
2018-06-21T06:24:10.261Z,25.36
2018-06-21T06:24:50.830Z,25.36
2018-06-21T06:25:31.417Z,25.36
2018-06-21T06:26:11.989Z,25.35
2018-06-21T06:26:52.627Z,25.26
2018-06-21T06:27:33.192Z,25.23
2018-06-21T06:28:13.839Z,25.25
2018-06-21T06:28:54.352Z,25.32
2018-06-21T06:29:34.939Z,25.4
2018-06-21T06:30:15.619Z,25.35
2018-06-21T06:30:56.181Z,25.43
2018-06-21T06:31:36.733Z,25.5
2018-06-21T06:32:17.498Z,25.55
2018-06-21T06:32:58.063Z,25.55
2018-06-21T06:33:38.728Z,25.62
2018-06-21T06:34:19.527Z,25.65
2018-06-21T06:35:00.330Z,25.6
2018-06-21T06:35:40.853Z,25.59
2018-06-21T06:36:21.424Z,25.55
2018-06-21T06:37:01.970Z,25.43
2018-06-21T06:37:42.628Z,25.38
2018-06-21T06:38:23.216Z,25.29
2018-06-21T06:39:03.759Z,25.26
2018-06-21T06:39:44.296Z,25.16
2018-06-21T06:40:24.880Z,25.16
2018-06-21T06:41:05.529Z,25.07
2018-06-21T06:41:46.073Z,25.08
2018-06-21T06:42:26.657Z,25.08
2018-06-21T06:43:07.291Z,25.01
2018-06-21T06:43:47.817Z,25.07
2018-06-21T06:44:28.414Z,25.01
2018-06-21T06:45:09.024Z,25.06
2018-06-21T06:45:49.689Z,24.98
2018-06-21T06:46:30.347Z,24.98
2018-06-21T06:47:10.962Z,24.93
2018-06-21T06:47:51.543Z,24.89
2018-06-21T06:48:32.149Z,24.78
2018-06-21T06:49:12.756Z,24.85
2018-06-21T06:49:53.585Z,24.8
2018-06-21T06:50:34.380Z,24.76
2018-06-21T06:51:14.975Z,24.76
2018-06-21T06:51:55.593Z,24.77
2018-06-21T06:52:36.238Z,24.76
2018-06-21T06:53:16.827Z,24.66
2018-06-21T06:53:57.411Z,24.66
2018-06-21T06:54:38.083Z,24.58
2018-06-21T06:55:18.617Z,24.53
2018-06-21T06:55:59.185Z,24.53
2018-06-21T06:56:39.770Z,24.42
2018-06-21T06:57:20.393Z,24.51
2018-06-21T06:58:00.962Z,24.43
2018-06-21T06:58:41.530Z,24.45
2018-06-21T06:59:22.065Z,24.47
2018-06-21T07:00:02.663Z,24.4
2018-06-21T07:00:43.241Z,24.32
2018-06-21T07:01:23.834Z,24.26
2018-06-21T07:02:04.390Z,24.24
2018-06-21T07:02:45.022Z,24.35
2018-06-21T07:03:25.549Z,24.35
2018-06-21T07:04:06.106Z,24.36
2018-06-21T07:04:46.671Z,24.35
2018-06-21T07:05:27.447Z,24.3
2018-06-21T07:06:08.233Z,24.28
2018-06-21T07:06:48.918Z,24.29
2018-06-21T07:07:29.724Z,24.26
2018-06-21T07:08:10.465Z,24.24
2018-06-21T07:08:50.940Z,24.24
2018-06-21T07:09:31.491Z,24.26
2018-06-21T07:10:12.041Z,24.3
2018-06-21T07:10:52.619Z,24.26
2018-06-21T07:11:33.202Z,24.26
2018-06-21T07:12:13.799Z,24.29
2018-06-21T07:12:54.348Z,24.23
2018-06-21T07:13:34.898Z,24.29
2018-06-21T07:14:15.513Z,24.28
2018-06-21T07:14:56.057Z,24.26
2018-06-21T07:15:36.634Z,24.33
2018-06-21T07:16:17.159Z,24.32
2018-06-21T07:16:57.805Z,24.35
2018-06-21T07:17:38.404Z,24.42
2018-06-21T07:18:18.952Z,24.45
2018-06-21T07:18:59.532Z,24.58
2018-06-21T07:19:40.154Z,24.6
2018-06-21T07:20:20.696Z,24.78
2018-06-21T07:21:01.214Z,24.84
2018-06-21T07:21:41.744Z,25.01
2018-06-21T07:22:22.310Z,25.07
2018-06-21T07:23:03.033Z,25.17
2018-06-21T07:23:43.867Z,25.13
2018-06-21T07:24:24.440Z,25.16
2018-06-21T07:25:05.001Z,25.14
2018-06-21T07:25:45.599Z,25.11
2018-06-21T07:26:26.158Z,25.06
2018-06-21T07:27:06.771Z,24.98
2018-06-21T07:27:47.336Z,25.04
2018-06-21T07:28:27.960Z,25.07
2018-06-21T07:29:08.467Z,25.1
2018-06-21T07:29:49.023Z,25.08
2018-06-21T07:30:29.700Z,25.13
2018-06-21T07:31:10.232Z,25.1
2018-06-21T07:31:50.871Z,25.17
2018-06-21T07:32:31.401Z,25.22
2018-06-21T07:33:11.990Z,25.29
2018-06-21T07:33:52.696Z,25.35
2018-06-21T07:34:33.334Z,25.43
2018-06-21T07:35:13.935Z,25.51
2018-06-21T07:35:54.537Z,25.53
2018-06-21T07:36:35.194Z,25.65
2018-06-21T07:37:15.972Z,25.77
2018-06-21T07:37:56.523Z,25.88
2018-06-21T07:38:37.240Z,25.96
2018-06-21T07:39:17.976Z,26.1
2018-06-21T07:39:58.508Z,26.16
2018-06-21T07:40:39.192Z,26.15
2018-06-21T07:41:20.000Z,26.25
2018-06-21T07:42:00.456Z,26.31
2018-06-21T07:42:41.173Z,26.29
2018-06-21T07:43:21.776Z,26.22
2018-06-21T07:44:02.416Z,26.26
2018-06-21T07:44:43.074Z,26.23
2018-06-21T07:45:23.667Z,26.4
2018-06-21T07:46:04.296Z,26.4
2018-06-21T07:46:44.908Z,26.37
2018-06-21T07:47:25.454Z,26.38
2018-06-21T07:48:06.108Z,26.41
2018-06-21T07:48:46.664Z,26.36
2018-06-21T07:49:27.270Z,26.37
2018-06-21T07:50:07.864Z,26.45
2018-06-21T07:50:48.438Z,26.58
2018-06-21T07:51:29.022Z,26.55
2018-06-21T07:52:09.582Z,26.56
2018-06-21T07:52:50.129Z,26.56
2018-06-21T07:53:30.687Z,26.53
2018-06-21T07:54:11.294Z,26.52
2018-06-21T07:54:51.994Z,26.48
2018-06-21T07:55:32.797Z,26.51
2018-06-21T07:56:13.460Z,26.43
2018-06-21T07:56:54.461Z,26.53
2018-06-21T07:57:35.139Z,26.47
2018-06-21T07:58:17.952Z,26.37
2018-06-21T07:58:58.646Z,26.53
2018-06-21T07:59:39.328Z,26.53
2018-06-21T08:00:20.173Z,26.52
2018-06-21T08:01:01.009Z,26.47
2018-06-21T08:01:42.444Z,26.55
2018-06-21T08:02:23.152Z,26.59
2018-06-21T08:03:04.429Z,26.66
2018-06-21T08:03:45.128Z,26.66
2018-06-21T08:04:25.711Z,26.71
2018-06-21T08:05:06.495Z,26.71
2018-06-21T08:05:47.385Z,26.74
2018-06-21T08:06:27.930Z,26.62
2018-06-21T08:07:08.513Z,26.59
2018-06-21T08:07:49.080Z,26.59
2018-06-21T08:08:29.677Z,26.53
2018-06-21T08:09:10.270Z,26.53
2018-06-21T08:09:50.824Z,26.51
2018-06-21T08:10:31.422Z,26.52
2018-06-21T08:11:12.002Z,26.53
2018-06-21T08:11:52.551Z,26.34
2018-06-21T08:12:33.121Z,26.47
2018-06-21T08:13:13.724Z,26.45
2018-06-21T08:13:54.294Z,26.4
2018-06-21T08:14:34.878Z,26.37
2018-06-21T08:15:15.478Z,26.43
2018-06-21T08:15:56.128Z,26.38
2018-06-21T08:16:36.737Z,26.22
2018-06-21T08:17:17.318Z,26.31
2018-06-21T08:17:57.903Z,26.26
2018-06-21T08:18:38.451Z,26.31
2018-06-21T08:19:19.000Z,26.31
2018-06-21T08:19:59.553Z,26.26
2018-06-21T08:20:40.116Z,26.21
2018-06-21T08:21:20.727Z,26.16
2018-06-21T08:22:01.279Z,26.28
2018-06-21T08:22:41.841Z,26.29
2018-06-21T08:23:22.457Z,26.25
2018-06-21T08:24:02.969Z,26.26
2018-06-21T08:24:43.600Z,26.26
2018-06-21T08:25:24.097Z,26.31
2018-06-21T08:26:04.676Z,26.26
2018-06-21T08:26:45.277Z,26.28
2018-06-21T08:27:25.852Z,26.31
2018-06-21T08:28:06.402Z,26.28
2018-06-21T08:28:46.960Z,26.28
2018-06-21T08:29:27.527Z,26.38
2018-06-21T08:30:08.090Z,26.4
2018-06-21T08:30:48.662Z,26.41
2018-06-21T08:31:29.244Z,26.36
2018-06-21T08:32:09.857Z,26.33
2018-06-21T08:32:50.367Z,26.4
2018-06-21T08:33:30.938Z,26.34
2018-06-21T08:34:11.488Z,26.23
2018-06-21T08:34:52.073Z,26.29
2018-06-21T08:35:32.687Z,26.23
2018-06-21T08:36:13.509Z,26.23
2018-06-21T08:36:54.066Z,26.21
2018-06-21T08:37:34.650Z,26.26
2018-06-21T08:38:15.208Z,26.21
2018-06-21T08:38:55.786Z,26.1
2018-06-21T08:39:36.726Z,26.18
2018-06-21T08:40:17.318Z,26.23
2018-06-21T08:40:57.884Z,26.19
2018-06-21T08:41:38.427Z,26.19
2018-06-21T08:42:19.022Z,26.19
2018-06-21T08:42:59.579Z,26.13
2018-06-21T08:43:40.196Z,26.1
2018-06-21T08:44:20.874Z,26.09
2018-06-21T08:45:01.458Z,26.07